Middle Georgia Regional Airport Macon US
ICAO: KMCN
IATA: MCN
Category: Medium
Scheduled Services: Yes

Elevation: 354 ft
TransAlt. 18000 ft.

Airport Communications:
ATLANTA APP/DEP:118.95
ASOS:120.775
ATIS:120.775
CTAF:128.2
GND:121.65
MACON RDO:122.2
MACON TWR:128.2
UNICOM:122.95

KMCN Zoom In..

If you have problems with the map follow the link
https://www.worldairports.se/pages/airport.php?
ICAO=KMCN

Runways:

(A) RW 05 length 6501 ft width 150 ft
ILS 109.50 / hdg 51

(B) RW 13 length 5000 ft width 150 ft
---- / hdg 133

(C) RW 23 length 6501 ft width 150 ft
---- / hdg 231

(D) RW 31 length 5000 ft width 150 ft
---- / hdg 313

Location; KMCN
Day. 14 / Time. 04.46 Zulu
* Altimeter: 29.77
* Temperature: 07° c. 44.6°f.
* Wind from: 350° Speed 07 kn.
Dewpoint: 06° c.
Visibility: 10 Statute Miles.
Clouds: Broken 700 ft.
Clouds: Broken 4800 ft.
Clouds: Overcast 7000 ft.
Conditions: Light Rain.

KMCN 140446Z AUTO 35007KT 10SM -RA BKN007 BKN048 OVC070 07/06 A2977 RMK AO2 P0030 T00670056


Wind From 350°
Speed 07 kn.

 
 
jpsmedia worldairports.se 2019   terms of use